sensor_id;sensor_type;location;lat;lon;timestamp;P1;durP1;ratioP1;P2;durP2;ratioP2
10120;SDS011;5100;45.176;5.714;2022-09-14T00:00:56;3.12;;;2.22;;
10120;SDS011;5100;45.176;5.714;2022-09-14T00:03:23;3.55;;;2.00;;
10120;SDS011;5100;45.176;5.714;2022-09-14T00:05:49;2.90;;;2.10;;
10120;SDS011;5100;45.176;5.714;2022-09-14T00:08:15;6.68;;;2.00;;
10120;SDS011;5100;45.176;5.714;2022-09-14T00:10:45;4.70;;;2.45;;
10120;SDS011;5100;45.176;5.714;2022-09-14T00:13:12;2.80;;;2.00;;
10120;SDS011;5100;45.176;5.714;2022-09-14T00:15:40;5.12;;;2.20;;
10120;SDS011;5100;45.176;5.714;2022-09-14T00:18:09;2.97;;;2.00;;
10120;SDS011;5100;45.176;5.714;2022-09-14T00:20:36;2.95;;;1.98;;
10120;SDS011;5100;45.176;5.714;2022-09-14T00:23:02;2.25;;;2.05;;
10120;SDS011;5100;45.176;5.714;2022-09-14T00:25:29;2.00;;;1.80;;
10120;SDS011;5100;45.176;5.714;2022-09-14T00:27:56;3.15;;;1.83;;
10120;SDS011;5100;45.176;5.714;2022-09-14T00:30:23;3.83;;;2.00;;
10120;SDS011;5100;45.176;5.714;2022-09-14T00:32:50;3.22;;;2.15;;
10120;SDS011;5100;45.176;5.714;2022-09-14T00:35:16;5.30;;;2.15;;
10120;SDS011;5100;45.176;5.714;2022-09-14T00:37:42;2.47;;;1.98;;
10120;SDS011;5100;45.176;5.714;2022-09-14T00:40:09;2.65;;;2.00;;
10120;SDS011;5100;45.176;5.714;2022-09-14T00:42:37;2.37;;;2.17;;
10120;SDS011;5100;45.176;5.714;2022-09-14T00:45:04;4.55;;;1.90;;
10120;SDS011;5100;45.176;5.714;2022-09-14T00:47:37;4.70;;;2.20;;
10120;SDS011;5100;45.176;5.714;2022-09-14T00:50:03;3.33;;;2.00;;
10120;SDS011;5100;45.176;5.714;2022-09-14T00:52:32;2.50;;;1.80;;
10120;SDS011;5100;45.176;5.714;2022-09-14T00:55:03;2.10;;;1.90;;
10120;SDS011;5100;45.176;5.714;2022-09-14T00:57:36;2.65;;;2.33;;
10120;SDS011;5100;45.176;5.714;2022-09-14T01:00:12;2.58;;;1.70;;
10120;SDS011;5100;45.176;5.714;2022-09-14T01:02:40;1.75;;;1.60;;
10120;SDS011;5100;45.176;5.714;2022-09-14T01:05:07;6.12;;;2.45;;
10120;SDS011;5100;45.176;5.714;2022-09-14T01:10:17;2.30;;;1.80;;
10120;SDS011;5100;45.176;5.714;2022-09-14T01:26:42;3.15;;;2.10;;
10120;SDS011;5100;45.176;5.714;2022-09-14T01:29:55;2.72;;;2.00;;
10120;SDS011;5100;45.176;5.714;2022-09-14T01:32:44;4.35;;;1.90;;
10120;SDS011;5100;45.176;5.714;2022-09-14T01:35:22;2.25;;;1.80;;
10120;SDS011;5100;45.176;5.714;2022-09-14T01:37:57;4.62;;;1.92;;
10120;SDS011;5100;45.176;5.714;2022-09-14T01:40:35;2.55;;;2.05;;
10120;SDS011;5100;45.176;5.714;2022-09-14T01:45:40;4.85;;;2.00;;
10120;SDS011;5100;45.176;5.714;2022-09-14T01:48:10;3.08;;;1.85;;
10120;SDS011;5100;45.176;5.714;2022-09-14T01:50:41;3.37;;;1.92;;
10120;SDS011;5100;45.176;5.714;2022-09-14T01:58:52;3.25;;;2.12;;
10120;SDS011;5100;45.176;5.714;2022-09-14T02:01:26;4.00;;;1.83;;
10120;SDS011;5100;45.176;5.714;2022-09-14T02:03:58;2.42;;;2.00;;
10120;SDS011;5100;45.176;5.714;2022-09-14T02:06:35;3.78;;;2.05;;
10120;SDS011;5100;45.176;5.714;2022-09-14T02:09:04;2.90;;;2.15;;
10120;SDS011;5100;45.176;5.714;2022-09-14T02:11:33;5.75;;;2.30;;
10120;SDS011;5100;45.176;5.714;2022-09-14T02:13:59;4.10;;;2.53;;
10120;SDS011;5100;45.176;5.714;2022-09-14T02:16:26;4.60;;;2.00;;
10120;SDS011;5100;45.176;5.714;2022-09-14T02:18:52;2.78;;;1.85;;
10120;SDS011;5100;45.176;5.714;2022-09-14T02:21:20;3.75;;;2.20;;
10120;SDS011;5100;45.176;5.714;2022-09-14T02:23:50;4.93;;;2.10;;
10120;SDS011;5100;45.176;5.714;2022-09-14T02:26:16;3.65;;;2.35;;
10120;SDS011;5100;45.176;5.714;2022-09-14T02:28:44;3.45;;;2.20;;
10120;SDS011;5100;45.176;5.714;2022-09-14T02:34:45;3.80;;;2.20;;
10120;SDS011;5100;45.176;5.714;2022-09-14T02:37:09;4.28;;;2.20;;
10120;SDS011;5100;45.176;5.714;2022-09-14T02:42:49;2.85;;;2.00;;
10120;SDS011;5100;45.176;5.714;2022-09-14T02:51:20;6.20;;;2.60;;
10120;SDS011;5100;45.176;5.714;2022-09-14T02:53:57;6.03;;;2.28;;
10120;SDS011;5100;45.176;5.714;2022-09-14T02:56:31;4.30;;;2.42;;
10120;SDS011;5100;45.176;5.714;2022-09-14T02:58:59;5.80;;;2.28;;
10120;SDS011;5100;45.176;5.714;2022-09-14T03:01:25;4.95;;;2.28;;
10120;SDS011;5100;45.176;5.714;2022-09-14T03:03:52;3.70;;;2.40;;
10120;SDS011;5100;45.176;5.714;2022-09-14T03:06:19;4.80;;;2.58;;
10120;SDS011;5100;45.176;5.714;2022-09-14T03:08:45;5.85;;;2.50;;
10120;SDS011;5100;45.176;5.714;2022-09-14T03:11:11;3.97;;;2.33;;
10120;SDS011;5100;45.176;5.714;2022-09-14T03:13:38;6.55;;;2.65;;
10120;SDS011;5100;45.176;5.714;2022-09-14T03:16:08;7.03;;;2.60;;
10120;SDS011;5100;45.176;5.714;2022-09-14T03:18:36;7.62;;;2.55;;
10120;SDS011;5100;45.176;5.714;2022-09-14T03:21:04;4.87;;;2.50;;
10120;SDS011;5100;45.176;5.714;2022-09-14T03:23:41;7.85;;;2.40;;
10120;SDS011;5100;45.176;5.714;2022-09-14T03:26:13;3.53;;;2.58;;
10120;SDS011;5100;45.176;5.714;2022-09-14T03:28:41;5.25;;;2.20;;
10120;SDS011;5100;45.176;5.714;2022-09-14T03:31:09;3.47;;;2.40;;
10120;SDS011;5100;45.176;5.714;2022-09-14T03:33:36;3.90;;;2.15;;
10120;SDS011;5100;45.176;5.714;2022-09-14T03:36:12;2.75;;;2.08;;
10120;SDS011;5100;45.176;5.714;2022-09-14T03:38:42;3.67;;;2.15;;
10120;SDS011;5100;45.176;5.714;2022-09-14T03:41:09;4.70;;;2.37;;
10120;SDS011;5100;45.176;5.714;2022-09-14T03:43:35;3.87;;;2.45;;
10120;SDS011;5100;45.176;5.714;2022-09-14T03:46:09;3.25;;;2.28;;
10120;SDS011;5100;45.176;5.714;2022-09-14T03:48:41;3.85;;;2.20;;
10120;SDS011;5100;45.176;5.714;2022-09-14T03:51:08;6.30;;;2.53;;
10120;SDS011;5100;45.176;5.714;2022-09-14T03:53:36;2.65;;;2.00;;
10120;SDS011;5100;45.176;5.714;2022-09-14T03:56:10;2.62;;;2.20;;
10120;SDS011;5100;45.176;5.714;2022-09-14T03:58:40;6.37;;;2.33;;
10120;SDS011;5100;45.176;5.714;2022-09-14T04:01:07;3.45;;;2.37;;
10120;SDS011;5100;45.176;5.714;2022-09-14T04:03:35;4.55;;;2.22;;
10120;SDS011;5100;45.176;5.714;2022-09-14T04:06:01;4.57;;;1.92;;
10120;SDS011;5100;45.176;5.714;2022-09-14T04:08:35;3.60;;;2.42;;
10120;SDS011;5100;45.176;5.714;2022-09-14T04:11:22;2.40;;;2.20;;
10120;SDS011;5100;45.176;5.714;2022-09-14T04:13:49;4.47;;;2.40;;
10120;SDS011;5100;45.176;5.714;2022-09-14T04:16:17;2.87;;;2.15;;
10120;SDS011;5100;45.176;5.714;2022-09-14T04:18:47;3.90;;;2.20;;
10120;SDS011;5100;45.176;5.714;2022-09-14T04:21:14;4.45;;;2.22;;
10120;SDS011;5100;45.176;5.714;2022-09-14T04:23:43;3.00;;;2.15;;
10120;SDS011;5100;45.176;5.714;2022-09-14T04:26:13;2.42;;;2.22;;
10120;SDS011;5100;45.176;5.714;2022-09-14T04:28:41;5.03;;;2.25;;
10120;SDS011;5100;45.176;5.714;2022-09-14T04:31:09;5.47;;;2.30;;
10120;SDS011;5100;45.176;5.714;2022-09-14T04:33:36;2.62;;;2.12;;
10120;SDS011;5100;45.176;5.714;2022-09-14T04:36:06;3.05;;;2.40;;
10120;SDS011;5100;45.176;5.714;2022-09-14T04:38:37;3.75;;;2.47;;
10120;SDS011;5100;45.176;5.714;2022-09-14T04:41:05;8.45;;;2.60;;
10120;SDS011;5100;45.176;5.714;2022-09-14T04:43:33;4.85;;;2.78;;
10120;SDS011;5100;45.176;5.714;2022-09-14T04:46:10;3.25;;;2.50;;
10120;SDS011;5100;45.176;5.714;2022-09-14T04:48:40;3.87;;;2.40;;
10120;SDS011;5100;45.176;5.714;2022-09-14T04:51:08;2.83;;;2.40;;
10120;SDS011;5100;45.176;5.714;2022-09-14T04:53:40;4.62;;;2.40;;
10120;SDS011;5100;45.176;5.714;2022-09-14T04:56:08;5.62;;;2.83;;
10120;SDS011;5100;45.176;5.714;2022-09-14T04:58:35;4.05;;;2.30;;
10120;SDS011;5100;45.176;5.714;2022-09-14T05:01:06;4.70;;;2.67;;
10120;SDS011;5100;45.176;5.714;2022-09-14T05:03:38;5.43;;;2.62;;
10120;SDS011;5100;45.176;5.714;2022-09-14T05:06:14;7.07;;;2.70;;
10120;SDS011;5100;45.176;5.714;2022-09-14T05:08:43;6.50;;;2.92;;
10120;SDS011;5100;45.176;5.714;2022-09-14T05:11:11;3.92;;;2.70;;
10120;SDS011;5100;45.176;5.714;2022-09-14T05:13:38;4.65;;;3.05;;
10120;SDS011;5100;45.176;5.714;2022-09-14T05:18:38;5.55;;;2.40;;
10120;SDS011;5100;45.176;5.714;2022-09-14T05:21:06;4.15;;;2.90;;
10120;SDS011;5100;45.176;5.714;2022-09-14T05:23:33;6.28;;;3.05;;
10120;SDS011;5100;45.176;5.714;2022-09-14T05:25:59;8.30;;;3.03;;
10120;SDS011;5100;45.176;5.714;2022-09-14T05:28:26;6.00;;;3.03;;
10120;SDS011;5100;45.176;5.714;2022-09-14T05:30:53;6.95;;;2.80;;
10120;SDS011;5100;45.176;5.714;2022-09-14T05:33:19;5.32;;;3.17;;
10120;SDS011;5100;45.176;5.714;2022-09-14T05:35:47;6.62;;;3.10;;
10120;SDS011;5100;45.176;5.714;2022-09-14T05:38:13;5.20;;;3.00;;
10120;SDS011;5100;45.176;5.714;2022-09-14T05:40:40;5.07;;;2.90;;
10120;SDS011;5100;45.176;5.714;2022-09-14T05:43:06;5.35;;;2.78;;
10120;SDS011;5100;45.176;5.714;2022-09-14T05:45:33;5.57;;;3.20;;
10120;SDS011;5100;45.176;5.714;2022-09-14T05:47:59;5.07;;;2.47;;
10120;SDS011;5100;45.176;5.714;2022-09-14T05:50:30;4.43;;;2.70;;
10120;SDS011;5100;45.176;5.714;2022-09-14T05:52:56;5.03;;;2.55;;
10120;SDS011;5100;45.176;5.714;2022-09-14T05:55:22;3.85;;;2.87;;
10120;SDS011;5100;45.176;5.714;2022-09-14T05:57:49;5.12;;;2.80;;
10120;SDS011;5100;45.176;5.714;2022-09-14T06:00:16;6.12;;;2.50;;
10120;SDS011;5100;45.176;5.714;2022-09-14T06:02:49;7.25;;;2.95;;
10120;SDS011;5100;45.176;5.714;2022-09-14T06:05:17;7.95;;;3.47;;
10120;SDS011;5100;45.176;5.714;2022-09-14T06:07:48;8.02;;;2.95;;
10120;SDS011;5100;45.176;5.714;2022-09-14T06:10:19;9.27;;;3.55;;
10120;SDS011;5100;45.176;5.714;2022-09-14T06:12:46;4.80;;;3.33;;
10120;SDS011;5100;45.176;5.714;2022-09-14T06:15:12;4.78;;;3.28;;
10120;SDS011;5100;45.176;5.714;2022-09-14T06:17:38;7.80;;;3.67;;
10120;SDS011;5100;45.176;5.714;2022-09-14T06:20:04;8.32;;;3.70;;
10120;SDS011;5100;45.176;5.714;2022-09-14T06:22:32;5.25;;;3.05;;
10120;SDS011;5100;45.176;5.714;2022-09-14T06:24:58;10.93;;;4.50;;
10120;SDS011;5100;45.176;5.714;2022-09-14T06:27:24;7.03;;;3.28;;
10120;SDS011;5100;45.176;5.714;2022-09-14T06:29:51;9.73;;;3.92;;
10120;SDS011;5100;45.176;5.714;2022-09-14T06:32:19;7.53;;;3.78;;
10120;SDS011;5100;45.176;5.714;2022-09-14T06:34:45;7.12;;;3.60;;
10120;SDS011;5100;45.176;5.714;2022-09-14T06:37:11;6.93;;;3.20;;
10120;SDS011;5100;45.176;5.714;2022-09-14T06:39:37;8.15;;;3.90;;
10120;SDS011;5100;45.176;5.714;2022-09-14T06:42:04;6.00;;;3.30;;
10120;SDS011;5100;45.176;5.714;2022-09-14T06:44:30;6.12;;;3.58;;
10120;SDS011;5100;45.176;5.714;2022-09-14T06:46:56;7.90;;;3.25;;
10120;SDS011;5100;45.176;5.714;2022-09-14T06:49:23;4.87;;;3.30;;
10120;SDS011;5100;45.176;5.714;2022-09-14T06:51:49;4.70;;;3.25;;
10120;SDS011;5100;45.176;5.714;2022-09-14T06:54:15;8.05;;;3.28;;
10120;SDS011;5100;45.176;5.714;2022-09-14T06:56:44;10.63;;;4.32;;
10120;SDS011;5100;45.176;5.714;2022-09-14T06:59:12;9.10;;;4.18;;
10120;SDS011;5100;45.176;5.714;2022-09-14T07:01:39;5.45;;;3.75;;
10120;SDS011;5100;45.176;5.714;2022-09-14T07:04:06;9.68;;;4.20;;
10120;SDS011;5100;45.176;5.714;2022-09-14T07:06:40;7.60;;;3.72;;
10120;SDS011;5100;45.176;5.714;2022-09-14T07:09:11;6.35;;;3.55;;
10120;SDS011;5100;45.176;5.714;2022-09-14T07:11:37;7.32;;;3.75;;
10120;SDS011;5100;45.176;5.714;2022-09-14T07:14:04;4.80;;;3.85;;
10120;SDS011;5100;45.176;5.714;2022-09-14T07:16:32;8.48;;;4.10;;
10120;SDS011;5100;45.176;5.714;2022-09-14T07:19:00;7.32;;;3.55;;
10120;SDS011;5100;45.176;5.714;2022-09-14T07:21:28;9.52;;;4.20;;
10120;SDS011;5100;45.176;5.714;2022-09-14T07:23:55;8.07;;;3.55;;
10120;SDS011;5100;45.176;5.714;2022-09-14T07:26:23;8.45;;;3.45;;
10120;SDS011;5100;45.176;5.714;2022-09-14T07:28:55;7.78;;;3.80;;
10120;SDS011;5100;45.176;5.714;2022-09-14T07:31:24;8.95;;;3.60;;
10120;SDS011;5100;45.176;5.714;2022-09-14T07:33:52;8.88;;;4.10;;
10120;SDS011;5100;45.176;5.714;2022-09-14T07:36:23;10.68;;;4.30;;
10120;SDS011;5100;45.176;5.714;2022-09-14T07:38:51;9.82;;;4.25;;
10120;SDS011;5100;45.176;5.714;2022-09-14T07:41:18;6.75;;;4.57;;
10120;SDS011;5100;45.176;5.714;2022-09-14T07:43:50;7.57;;;4.43;;
10120;SDS011;5100;45.176;5.714;2022-09-14T07:46:18;10.70;;;4.80;;
10120;SDS011;5100;45.176;5.714;2022-09-14T07:48:45;10.40;;;4.97;;
10120;SDS011;5100;45.176;5.714;2022-09-14T07:51:12;8.85;;;4.45;;
10120;SDS011;5100;45.176;5.714;2022-09-14T07:53:40;9.32;;;4.70;;
10120;SDS011;5100;45.176;5.714;2022-09-14T07:56:08;8.35;;;3.67;;
10120;SDS011;5100;45.176;5.714;2022-09-14T07:58:39;7.20;;;4.12;;
10120;SDS011;5100;45.176;5.714;2022-09-14T08:01:07;7.65;;;4.53;;
10120;SDS011;5100;45.176;5.714;2022-09-14T08:03:37;6.43;;;4.00;;
10120;SDS011;5100;45.176;5.714;2022-09-14T08:06:06;7.30;;;4.07;;
10120;SDS011;5100;45.176;5.714;2022-09-14T08:08:34;7.80;;;3.87;;
10120;SDS011;5100;45.176;5.714;2022-09-14T08:11:03;6.50;;;3.72;;
10120;SDS011;5100;45.176;5.714;2022-09-14T08:13:31;8.18;;;4.10;;
10120;SDS011;5100;45.176;5.714;2022-09-14T08:16:01;8.73;;;4.10;;
10120;SDS011;5100;45.176;5.714;2022-09-14T08:18:27;7.68;;;4.95;;
10120;SDS011;5100;45.176;5.714;2022-09-14T08:20:54;8.32;;;5.05;;
10120;SDS011;5100;45.176;5.714;2022-09-14T08:23:21;9.82;;;4.95;;
10120;SDS011;5100;45.176;5.714;2022-09-14T08:25:47;8.75;;;4.53;;
10120;SDS011;5100;45.176;5.714;2022-09-14T08:28:13;8.23;;;3.83;;
10120;SDS011;5100;45.176;5.714;2022-09-14T08:30:40;6.60;;;3.97;;
10120;SDS011;5100;45.176;5.714;2022-09-14T08:33:06;9.45;;;4.90;;
10120;SDS011;5100;45.176;5.714;2022-09-14T08:35:32;6.22;;;4.05;;
10120;SDS011;5100;45.176;5.714;2022-09-14T08:37:57;8.00;;;4.25;;
10120;SDS011;5100;45.176;5.714;2022-09-14T08:40:23;6.93;;;3.70;;
10120;SDS011;5100;45.176;5.714;2022-09-14T08:42:49;6.32;;;4.47;;
10120;SDS011;5100;45.176;5.714;2022-09-14T08:45:19;6.78;;;3.85;;
10120;SDS011;5100;45.176;5.714;2022-09-14T08:47:46;7.47;;;4.18;;
10120;SDS011;5100;45.176;5.714;2022-09-14T08:50:13;6.22;;;4.32;;
10120;SDS011;5100;45.176;5.714;2022-09-14T08:52:43;6.12;;;3.67;;
10120;SDS011;5100;45.176;5.714;2022-09-14T09:00:58;5.75;;;3.42;;
10120;SDS011;5100;45.176;5.714;2022-09-14T09:03:34;5.60;;;3.12;;
10120;SDS011;5100;45.176;5.714;2022-09-14T09:06:05;5.32;;;3.15;;
10120;SDS011;5100;45.176;5.714;2022-09-14T09:08:58;7.43;;;3.92;;
10120;SDS011;5100;45.176;5.714;2022-09-14T09:11:38;3.72;;;2.60;;
10120;SDS011;5100;45.176;5.714;2022-09-14T09:16:56;3.90;;;2.87;;
10120;SDS011;5100;45.176;5.714;2022-09-14T09:19:29;4.22;;;2.67;;
10120;SDS011;5100;45.176;5.714;2022-09-14T09:21:59;4.93;;;2.78;;
10120;SDS011;5100;45.176;5.714;2022-09-14T09:27:01;5.80;;;2.83;;
10120;SDS011;5100;45.176;5.714;2022-09-14T09:29:29;5.07;;;3.05;;
10120;SDS011;5100;45.176;5.714;2022-09-14T09:32:10;9.10;;;2.62;;
10120;SDS011;5100;45.176;5.714;2022-09-14T09:34:46;4.53;;;2.42;;
10120;SDS011;5100;45.176;5.714;2022-09-14T09:37:13;5.43;;;2.45;;
10120;SDS011;5100;45.176;5.714;2022-09-14T09:39:41;4.03;;;2.40;;
10120;SDS011;5100;45.176;5.714;2022-09-14T09:42:13;7.18;;;3.35;;
10120;SDS011;5100;45.176;5.714;2022-09-14T09:49:59;5.47;;;2.60;;
10120;SDS011;5100;45.176;5.714;2022-09-14T09:52:29;6.47;;;2.85;;
10120;SDS011;5100;45.176;5.714;2022-09-14T09:54:56;4.35;;;2.50;;
10120;SDS011;5100;45.176;5.714;2022-09-14T09:57:30;5.35;;;2.78;;
10120;SDS011;5100;45.176;5.714;2022-09-14T10:02:43;3.83;;;2.42;;
10120;SDS011;5100;45.176;5.714;2022-09-14T10:12:31;4.72;;;2.55;;
10120;SDS011;5100;45.176;5.714;2022-09-14T10:20:29;2.62;;;2.03;;
10120;SDS011;5100;45.176;5.714;2022-09-14T10:22:57;4.03;;;2.55;;
10120;SDS011;5100;45.176;5.714;2022-09-14T10:25:50;3.72;;;2.17;;
10120;SDS011;5100;45.176;5.714;2022-09-14T10:30:59;6.10;;;2.40;;
10120;SDS011;5100;45.176;5.714;2022-09-14T10:33:45;3.28;;;2.22;;
10120;SDS011;5100;45.176;5.714;2022-09-14T10:39:12;3.42;;;2.22;;
10120;SDS011;5100;45.176;5.714;2022-09-14T10:41:49;10.02;;;2.53;;
10120;SDS011;5100;45.176;5.714;2022-09-14T10:52:54;4.70;;;2.47;;
10120;SDS011;5100;45.176;5.714;2022-09-14T11:06:34;3.75;;;2.53;;
10120;SDS011;5100;45.176;5.714;2022-09-14T11:09:06;5.45;;;2.58;;
10120;SDS011;5100;45.176;5.714;2022-09-14T11:11:48;10.25;;;2.85;;
10120;SDS011;5100;45.176;5.714;2022-09-14T11:14:28;4.05;;;2.83;;
10120;SDS011;5100;45.176;5.714;2022-09-14T11:29:59;4.75;;;1.90;;
10120;SDS011;5100;45.176;5.714;2022-09-14T11:32:38;4.85;;;2.67;;
10120;SDS011;5100;45.176;5.714;2022-09-14T11:37:40;6.47;;;3.12;;
10120;SDS011;5100;45.176;5.714;2022-09-14T11:40:18;4.28;;;2.22;;
10120;SDS011;5100;45.176;5.714;2022-09-14T11:45:49;4.32;;;2.80;;
10120;SDS011;5100;45.176;5.714;2022-09-14T11:50:57;4.70;;;2.78;;
10120;SDS011;5100;45.176;5.714;2022-09-14T11:53:39;5.15;;;2.03;;
10120;SDS011;5100;45.176;5.714;2022-09-14T11:56:12;3.70;;;2.08;;
10120;SDS011;5100;45.176;5.714;2022-09-14T11:58:56;5.10;;;3.72;;
10120;SDS011;5100;45.176;5.714;2022-09-14T12:01:26;9.50;;;2.30;;
10120;SDS011;5100;45.176;5.714;2022-09-14T12:11:38;6.35;;;2.42;;
10120;SDS011;5100;45.176;5.714;2022-09-14T12:14:14;3.25;;;2.08;;
10120;SDS011;5100;45.176;5.714;2022-09-14T12:19:37;3.65;;;2.30;;
10120;SDS011;5100;45.176;5.714;2022-09-14T12:22:27;3.62;;;2.25;;
10120;SDS011;5100;45.176;5.714;2022-09-14T12:27:35;4.80;;;2.40;;
10120;SDS011;5100;45.176;5.714;2022-09-14T12:32:58;3.55;;;2.25;;
10120;SDS011;5100;45.176;5.714;2022-09-14T12:35:35;5.10;;;1.92;;
10120;SDS011;5100;45.176;5.714;2022-09-14T13:01:54;4.65;;;2.10;;
10120;SDS011;5100;45.176;5.714;2022-09-14T13:04:31;3.58;;;1.75;;
10120;SDS011;5100;45.176;5.714;2022-09-14T13:07:02;3.12;;;2.25;;
10120;SDS011;5100;45.176;5.714;2022-09-14T13:09:30;4.25;;;2.03;;
10120;SDS011;5100;45.176;5.714;2022-09-14T13:11:59;4.53;;;2.10;;
10120;SDS011;5100;45.176;5.714;2022-09-14T13:14:31;3.60;;;1.90;;
10120;SDS011;5100;45.176;5.714;2022-09-14T13:17:04;3.97;;;2.15;;
10120;SDS011;5100;45.176;5.714;2022-09-14T13:19:37;3.75;;;1.85;;
10120;SDS011;5100;45.176;5.714;2022-09-14T13:22:20;3.90;;;2.08;;
10120;SDS011;5100;45.176;5.714;2022-09-14T13:24:49;3.97;;;2.12;;
10120;SDS011;5100;45.176;5.714;2022-09-14T13:32:41;2.45;;;2.10;;
10120;SDS011;5100;45.176;5.714;2022-09-14T13:35:42;4.68;;;2.08;;
10120;SDS011;5100;45.176;5.714;2022-09-14T13:38:07;3.72;;;2.03;;
10120;SDS011;5100;45.176;5.714;2022-09-14T13:40:41;4.45;;;1.90;;
10120;SDS011;5100;45.176;5.714;2022-09-14T13:43:08;2.50;;;1.80;;
10120;SDS011;5100;45.176;5.714;2022-09-14T13:45:35;4.45;;;2.00;;
10120;SDS011;5100;45.176;5.714;2022-09-14T13:48:01;2.00;;;1.90;;
10120;SDS011;5100;45.176;5.714;2022-09-14T13:50:30;2.15;;;1.95;;
10120;SDS011;5100;45.176;5.714;2022-09-14T13:52:57;3.00;;;2.10;;
10120;SDS011;5100;45.176;5.714;2022-09-14T13:55:27;5.53;;;2.15;;
10120;SDS011;5100;45.176;5.714;2022-09-14T14:05:56;3.80;;;1.98;;
10120;SDS011;5100;45.176;5.714;2022-09-14T14:10:57;4.87;;;2.05;;
10120;SDS011;5100;45.176;5.714;2022-09-14T14:13:26;3.22;;;1.95;;
10120;SDS011;5100;45.176;5.714;2022-09-14T14:16:14;3.15;;;2.00;;
10120;SDS011;5100;45.176;5.714;2022-09-14T14:26:50;3.05;;;2.10;;
10120;SDS011;5100;45.176;5.714;2022-09-14T14:29:19;5.85;;;2.20;;
10120;SDS011;5100;45.176;5.714;2022-09-14T14:31:46;5.90;;;2.28;;
10120;SDS011;5100;45.176;5.714;2022-09-14T14:34:22;5.10;;;2.03;;
10120;SDS011;5100;45.176;5.714;2022-09-14T14:36:50;4.62;;;2.33;;
10120;SDS011;5100;45.176;5.714;2022-09-14T14:39:17;4.65;;;2.40;;
10120;SDS011;5100;45.176;5.714;2022-09-14T14:41:45;5.70;;;2.30;;
10120;SDS011;5100;45.176;5.714;2022-09-14T14:44:14;7.00;;;2.40;;
10120;SDS011;5100;45.176;5.714;2022-09-14T14:46:42;5.22;;;2.55;;
10120;SDS011;5100;45.176;5.714;2022-09-14T14:49:10;7.65;;;2.67;;
10120;SDS011;5100;45.176;5.714;2022-09-14T14:51:38;7.07;;;2.45;;
10120;SDS011;5100;45.176;5.714;2022-09-14T14:54:04;4.90;;;2.50;;
10120;SDS011;5100;45.176;5.714;2022-09-14T14:56:31;5.53;;;2.33;;
10120;SDS011;5100;45.176;5.714;2022-09-14T14:59:00;5.22;;;2.53;;
10120;SDS011;5100;45.176;5.714;2022-09-14T15:01:26;4.93;;;2.30;;
10120;SDS011;5100;45.176;5.714;2022-09-14T15:03:52;6.43;;;2.55;;
10120;SDS011;5100;45.176;5.714;2022-09-14T15:06:20;5.40;;;2.67;;
10120;SDS011;5100;45.176;5.714;2022-09-14T15:08:53;6.82;;;2.50;;
10120;SDS011;5100;45.176;5.714;2022-09-14T15:11:21;7.75;;;2.42;;
10120;SDS011;5100;45.176;5.714;2022-09-14T15:13:47;4.68;;;2.37;;
10120;SDS011;5100;45.176;5.714;2022-09-14T15:16:14;6.22;;;2.60;;
10120;SDS011;5100;45.176;5.714;2022-09-14T15:18:41;6.90;;;2.60;;
10120;SDS011;5100;45.176;5.714;2022-09-14T15:21:07;9.35;;;2.40;;
10120;SDS011;5100;45.176;5.714;2022-09-14T15:23:33;4.05;;;2.58;;
10120;SDS011;5100;45.176;5.714;2022-09-14T15:26:00;6.68;;;2.65;;
10120;SDS011;5100;45.176;5.714;2022-09-14T15:28:26;7.97;;;2.55;;
10120;SDS011;5100;45.176;5.714;2022-09-14T15:30:52;5.72;;;2.22;;
10120;SDS011;5100;45.176;5.714;2022-09-14T15:33:18;6.95;;;2.58;;
10120;SDS011;5100;45.176;5.714;2022-09-14T15:35:44;6.60;;;2.70;;
10120;SDS011;5100;45.176;5.714;2022-09-14T15:38:10;4.00;;;2.25;;
10120;SDS011;5100;45.176;5.714;2022-09-14T15:40:36;7.55;;;2.58;;
10120;SDS011;5100;45.176;5.714;2022-09-14T15:43:02;4.82;;;2.50;;
10120;SDS011;5100;45.176;5.714;2022-09-14T15:45:28;6.15;;;2.67;;
10120;SDS011;5100;45.176;5.714;2022-09-14T15:47:54;4.18;;;2.50;;
10120;SDS011;5100;45.176;5.714;2022-09-14T15:50:20;6.20;;;2.60;;
10120;SDS011;5100;45.176;5.714;2022-09-14T15:52:46;6.00;;;2.50;;
10120;SDS011;5100;45.176;5.714;2022-09-14T15:55:13;5.03;;;2.15;;
10120;SDS011;5100;45.176;5.714;2022-09-14T15:57:39;6.12;;;2.83;;
10120;SDS011;5100;45.176;5.714;2022-09-14T16:00:06;5.37;;;2.78;;
10120;SDS011;5100;45.176;5.714;2022-09-14T16:02:38;8.25;;;3.40;;
10120;SDS011;5100;45.176;5.714;2022-09-14T16:05:05;7.00;;;2.90;;
10120;SDS011;5100;45.176;5.714;2022-09-14T16:07:31;8.00;;;2.80;;
10120;SDS011;5100;45.176;5.714;2022-09-14T16:09:57;4.72;;;2.40;;
10120;SDS011;5100;45.176;5.714;2022-09-14T16:12:24;4.70;;;2.58;;
10120;SDS011;5100;45.176;5.714;2022-09-14T16:14:50;8.20;;;2.85;;
10120;SDS011;5100;45.176;5.714;2022-09-14T16:17:16;6.22;;;2.70;;
10120;SDS011;5100;45.176;5.714;2022-09-14T16:19:42;7.75;;;3.10;;
10120;SDS011;5100;45.176;5.714;2022-09-14T16:22:08;5.20;;;2.58;;
10120;SDS011;5100;45.176;5.714;2022-09-14T16:24:34;6.30;;;2.78;;
10120;SDS011;5100;45.176;5.714;2022-09-14T16:27:00;5.43;;;2.17;;
10120;SDS011;5100;45.176;5.714;2022-09-14T16:29:26;8.10;;;2.80;;
10120;SDS011;5100;45.176;5.714;2022-09-14T16:31:52;6.30;;;3.10;;
10120;SDS011;5100;45.176;5.714;2022-09-14T16:34:20;5.90;;;2.87;;
10120;SDS011;5100;45.176;5.714;2022-09-14T16:36:48;6.43;;;2.50;;
10120;SDS011;5100;45.176;5.714;2022-09-14T16:39:15;5.25;;;2.40;;
10120;SDS011;5100;45.176;5.714;2022-09-14T16:41:44;6.28;;;2.70;;
10120;SDS011;5100;45.176;5.714;2022-09-14T16:44:17;5.90;;;2.58;;
10120;SDS011;5100;45.176;5.714;2022-09-14T16:46:49;9.23;;;2.80;;
10120;SDS011;5100;45.176;5.714;2022-09-14T16:49:16;6.47;;;2.78;;
10120;SDS011;5100;45.176;5.714;2022-09-14T16:51:45;7.50;;;3.45;;
10120;SDS011;5100;45.176;5.714;2022-09-14T16:54:15;7.43;;;3.17;;
10120;SDS011;5100;45.176;5.714;2022-09-14T16:56:42;4.30;;;2.60;;
10120;SDS011;5100;45.176;5.714;2022-09-14T16:59:09;11.20;;;3.33;;
10120;SDS011;5100;45.176;5.714;2022-09-14T17:01:37;6.90;;;2.50;;
10120;SDS011;5100;45.176;5.714;2022-09-14T17:04:06;6.32;;;2.72;;
10120;SDS011;5100;45.176;5.714;2022-09-14T17:06:34;7.05;;;2.87;;
10120;SDS011;5100;45.176;5.714;2022-09-14T17:09:04;5.85;;;2.90;;
10120;SDS011;5100;45.176;5.714;2022-09-14T17:11:35;7.43;;;2.95;;
10120;SDS011;5100;45.176;5.714;2022-09-14T17:14:02;5.28;;;2.50;;
10120;SDS011;5100;45.176;5.714;2022-09-14T17:16:28;8.43;;;3.05;;
10120;SDS011;5100;45.176;5.714;2022-09-14T17:18:59;6.72;;;2.60;;
10120;SDS011;5100;45.176;5.714;2022-09-14T17:21:27;10.15;;;3.10;;
10120;SDS011;5100;45.176;5.714;2022-09-14T17:23:59;11.00;;;3.37;;
10120;SDS011;5100;45.176;5.714;2022-09-14T17:26:25;8.75;;;3.33;;
10120;SDS011;5100;45.176;5.714;2022-09-14T17:28:53;6.60;;;3.10;;
10120;SDS011;5100;45.176;5.714;2022-09-14T17:31:22;6.47;;;3.20;;
10120;SDS011;5100;45.176;5.714;2022-09-14T17:33:51;8.80;;;3.42;;
10120;SDS011;5100;45.176;5.714;2022-09-14T17:36:18;7.62;;;3.35;;
10120;SDS011;5100;45.176;5.714;2022-09-14T17:38:45;7.47;;;3.33;;
10120;SDS011;5100;45.176;5.714;2022-09-14T17:41:14;6.37;;;2.83;;
10120;SDS011;5100;45.176;5.714;2022-09-14T17:43:42;10.27;;;3.78;;
10120;SDS011;5100;45.176;5.714;2022-09-14T17:46:11;6.85;;;3.20;;
10120;SDS011;5100;45.176;5.714;2022-09-14T17:48:40;11.48;;;3.62;;
10120;SDS011;5100;45.176;5.714;2022-09-14T17:51:10;6.50;;;3.12;;
10120;SDS011;5100;45.176;5.714;2022-09-14T17:53:42;9.82;;;3.53;;
10120;SDS011;5100;45.176;5.714;2022-09-14T17:56:10;10.73;;;3.45;;
10120;SDS011;5100;45.176;5.714;2022-09-14T17:58:38;5.07;;;2.67;;
10120;SDS011;5100;45.176;5.714;2022-09-14T18:01:19;10.48;;;2.78;;
10120;SDS011;5100;45.176;5.714;2022-09-14T18:03:48;8.15;;;3.60;;
10120;SDS011;5100;45.176;5.714;2022-09-14T18:06:16;9.45;;;2.83;;
10120;SDS011;5100;45.176;5.714;2022-09-14T18:08:43;9.88;;;2.85;;
10120;SDS011;5100;45.176;5.714;2022-09-14T18:11:11;10.90;;;3.67;;
10120;SDS011;5100;45.176;5.714;2022-09-14T18:13:39;8.50;;;2.87;;
10120;SDS011;5100;45.176;5.714;2022-09-14T18:16:10;5.03;;;2.50;;